createdAt,value
2019-04-07T00:00:18.868Z,9.80
2019-04-07T00:02:49.148Z,9.70
2019-04-07T00:05:19.593Z,9.70
2019-04-07T00:07:49.964Z,9.70
2019-04-07T00:10:20.371Z,9.70
2019-04-07T00:12:50.892Z,9.60
2019-04-07T00:15:21.137Z,9.60
2019-04-07T00:17:51.363Z,9.60
2019-04-07T00:20:22.055Z,9.60
2019-04-07T00:22:52.359Z,9.60
2019-04-07T00:25:22.701Z,9.50
2019-04-07T00:27:52.958Z,9.50
2019-04-07T00:30:23.171Z,9.50
2019-04-07T00:32:53.375Z,9.50
2019-04-07T00:35:30.516Z,9.40
2019-04-07T00:37:55.576Z,9.40
2019-04-07T00:40:25.823Z,9.40
2019-04-07T00:42:56.679Z,9.30
2019-04-07T00:45:27.038Z,9.30
2019-04-07T00:47:57.266Z,9.20
2019-04-07T00:50:29.407Z,9.20
2019-04-07T00:53:00.239Z,9.20
2019-04-07T00:55:30.424Z,9.10
2019-04-07T00:58:01.045Z,9.10
2019-04-07T01:00:33.385Z,9.10
2019-04-07T01:03:04.078Z,9.10
2019-04-07T01:05:38.508Z,9.10
2019-04-07T01:08:06.444Z,9.00
2019-04-07T01:10:36.908Z,9.00
2019-04-07T01:13:07.715Z,9.00
2019-04-07T01:15:38.380Z,9.00
2019-04-07T01:18:09.969Z,8.90
2019-04-07T01:20:40.265Z,8.90
2019-04-07T01:23:10.615Z,8.90
2019-04-07T01:25:41.141Z,8.80
2019-04-07T01:28:12.084Z,8.80
2019-04-07T01:30:42.631Z,8.80
2019-04-07T01:33:12.978Z,8.80
2019-04-07T01:35:48.077Z,8.80
2019-04-07T01:38:15.311Z,8.70
2019-04-07T01:40:47.707Z,8.70
2019-04-07T01:43:22.742Z,8.70
2019-04-07T01:46:13.356Z,8.60
2019-04-07T01:48:48.060Z,8.60
2019-04-07T01:51:25.836Z,8.60
2019-04-07T01:54:03.734Z,8.60
2019-04-07T01:56:51.920Z,8.50
2019-04-07T01:59:26.686Z,8.50
2019-04-07T02:02:04.660Z,8.50
2019-04-07T02:04:42.533Z,8.50
2019-04-07T02:07:32.826Z,8.50
2019-04-07T02:10:20.933Z,8.50
2019-04-07T02:12:58.534Z,8.50
2019-04-07T02:15:33.968Z,8.50
2019-04-07T02:18:11.799Z,8.40
2019-04-07T02:20:57.593Z,8.40
2019-04-07T02:23:41.479Z,8.40
2019-04-07T02:26:16.965Z,8.40
2019-04-07T02:28:51.540Z,8.40
2019-04-07T02:31:26.126Z,8.40
2019-04-07T02:34:14.152Z,8.40
2019-04-07T02:36:55.843Z,8.40
2019-04-07T02:39:30.790Z,8.40
2019-04-07T02:42:02.643Z,8.40
2019-04-07T02:44:50.825Z,8.30
2019-04-07T02:47:41.830Z,8.30
2019-04-07T02:50:19.990Z,8.30
2019-04-07T02:52:57.605Z,8.30
2019-04-07T02:55:29.994Z,8.30
2019-04-07T02:58:02.885Z,8.30
2019-04-07T03:00:41.394Z,8.30
2019-04-07T03:03:28.432Z,8.20
2019-04-07T03:06:20.985Z,8.20
2019-04-07T03:09:04.092Z,8.20
2019-04-07T03:11:39.298Z,8.20
2019-04-07T03:14:12.289Z,8.10
2019-04-07T03:16:44.796Z,8.10
2019-04-07T03:19:25.870Z,8.00
2019-04-07T03:22:00.977Z,8.00
2019-04-07T03:24:35.303Z,8.00
2019-04-07T03:27:23.988Z,8.00
2019-04-07T03:30:09.274Z,8.00
2019-04-07T03:33:00.652Z,7.90
2019-04-07T03:35:38.403Z,7.90
2019-04-07T03:38:12.033Z,7.90
2019-04-07T03:40:46.697Z,7.90
2019-04-07T03:43:21.741Z,7.80
2019-04-07T03:45:57.217Z,7.80
2019-04-07T03:48:29.224Z,7.80
2019-04-07T03:51:17.283Z,7.80
2019-04-07T03:53:54.855Z,7.80
2019-04-07T03:56:45.497Z,7.80
2019-04-07T03:59:26.832Z,7.80
2019-04-07T04:02:01.823Z,7.70
2019-04-07T04:04:34.244Z,7.70
2019-04-07T04:07:20.738Z,7.70
2019-04-07T04:09:48.753Z,7.70
2019-04-07T04:12:23.312Z,7.70
2019-04-07T04:14:56.907Z,7.70
2019-04-07T04:17:27.413Z,7.70
2019-04-07T04:19:58.690Z,7.70
2019-04-07T04:22:30.679Z,7.70
2019-04-07T04:25:01.286Z,7.60
2019-04-07T04:27:31.586Z,7.60
2019-04-07T04:30:07.908Z,7.60
2019-04-07T04:32:39.337Z,7.60
2019-04-07T04:35:10.792Z,7.60
2019-04-07T04:37:46.638Z,7.50
2019-04-07T04:40:14.083Z,7.50
2019-04-07T04:42:44.467Z,7.40
2019-04-07T04:45:15.800Z,7.40
2019-04-07T04:47:46.416Z,7.30
2019-04-07T04:50:17.005Z,7.30
2019-04-07T04:52:47.307Z,7.30
2019-04-07T04:55:17.539Z,7.20
2019-04-07T04:57:48.000Z,7.20
2019-04-07T05:00:18.755Z,7.20
2019-04-07T05:02:49.517Z,7.20
2019-04-07T05:05:20.164Z,7.10
2019-04-07T05:07:59.196Z,7.10
2019-04-07T05:10:22.409Z,7.10
2019-04-07T05:12:52.629Z,7.10
2019-04-07T05:15:23.087Z,7.10
2019-04-07T05:17:53.878Z,7.10
2019-04-07T05:20:24.249Z,7.10
2019-04-07T05:22:54.463Z,7.20
2019-04-07T05:25:24.966Z,7.20
2019-04-07T05:27:55.856Z,7.20
2019-04-07T05:30:26.267Z,7.20
2019-04-07T05:32:56.826Z,7.30
2019-04-07T05:35:27.643Z,7.30
2019-04-07T05:38:02.820Z,7.30
2019-04-07T05:40:29.730Z,7.30
2019-04-07T05:42:59.975Z,7.40
2019-04-07T05:45:30.454Z,7.40
2019-04-07T05:48:00.594Z,7.40
2019-04-07T05:50:30.881Z,7.40
2019-04-07T05:53:01.068Z,7.50
2019-04-07T05:55:32.053Z,7.50
2019-04-07T05:58:05.144Z,7.50
2019-04-07T06:00:34.193Z,7.50
2019-04-07T06:03:07.903Z,7.60
2019-04-07T06:05:36.907Z,7.60
2019-04-07T06:08:22.644Z,7.70
2019-04-07T06:10:39.041Z,7.80
2019-04-07T06:13:13.160Z,7.90
2019-04-07T06:15:41.538Z,7.90
2019-04-07T06:18:11.809Z,8.00
2019-04-07T06:20:44.114Z,8.10
2019-04-07T06:23:13.886Z,8.10
2019-04-07T06:25:45.071Z,8.10
2019-04-07T06:28:17.239Z,8.20
2019-04-07T06:30:48.311Z,8.30
2019-04-07T06:33:18.586Z,8.30
2019-04-07T06:35:48.793Z,8.30
2019-04-07T06:38:30.468Z,8.30
2019-04-07T06:40:56.544Z,8.40
2019-04-07T06:43:22.903Z,8.40
2019-04-07T06:45:57.580Z,8.40
2019-04-07T06:48:27.800Z,8.50
2019-04-07T06:51:00.572Z,8.50
2019-04-07T06:53:43.015Z,8.50
2019-04-07T06:56:15.429Z,8.60
2019-04-07T06:59:03.585Z,8.60
2019-04-07T07:01:41.009Z,8.70
2019-04-07T07:04:29.138Z,8.80
2019-04-07T07:07:01.021Z,8.80
2019-04-07T07:09:42.701Z,8.90
2019-04-07T07:12:22.674Z,8.90
2019-04-07T07:15:03.374Z,9.00
2019-04-07T07:17:42.808Z,9.00
2019-04-07T07:20:15.679Z,9.10
2019-04-07T07:22:48.709Z,9.10
2019-04-07T07:25:20.383Z,9.20
2019-04-07T07:27:51.216Z,9.20
2019-04-07T07:30:21.525Z,9.20
2019-04-07T07:32:51.791Z,9.20
2019-04-07T07:35:22.339Z,9.30
2019-04-07T07:37:53.643Z,9.30
2019-04-07T07:40:25.353Z,9.40
2019-04-07T07:42:58.120Z,9.50
2019-04-07T07:45:28.344Z,9.50
2019-04-07T07:47:58.649Z,9.60
2019-04-07T07:50:28.827Z,9.70
2019-04-07T07:52:59.109Z,9.80
2019-04-07T07:55:33.859Z,9.80
2019-04-07T07:58:01.263Z,9.90
2019-04-07T08:00:32.057Z,10.00
2019-04-07T08:03:02.414Z,10.10
2019-04-07T08:05:33.473Z,10.20
2019-04-07T08:08:04.819Z,10.30
2019-04-07T08:10:35.138Z,10.30
2019-04-07T08:13:07.672Z,10.40
2019-04-07T08:15:37.574Z,10.50
2019-04-07T08:18:08.747Z,10.60
2019-04-07T08:20:40.903Z,10.60
2019-04-07T08:23:13.215Z,10.70
2019-04-07T08:25:43.936Z,10.80
2019-04-07T08:28:14.694Z,10.80
2019-04-07T08:30:47.511Z,10.90
2019-04-07T08:33:17.927Z,10.90
2019-04-07T08:35:48.898Z,11.00
2019-04-07T08:38:21.554Z,11.10
2019-04-07T08:40:53.988Z,11.10
2019-04-07T08:43:23.630Z,11.20
2019-04-07T08:45:55.327Z,11.20
2019-04-07T08:48:25.649Z,11.30
2019-04-07T08:50:59.316Z,11.30
2019-04-07T08:53:28.353Z,11.40
2019-04-07T08:55:58.948Z,11.40
2019-04-07T08:58:33.130Z,11.40
2019-04-07T09:01:01.071Z,11.50
2019-04-07T09:03:31.465Z,11.50
2019-04-07T09:06:01.781Z,11.60
2019-04-07T09:08:34.698Z,11.60
2019-04-07T09:11:11.231Z,11.70
2019-04-07T09:13:44.042Z,11.70
2019-04-07T09:16:22.465Z,11.80
2019-04-07T09:19:10.286Z,11.90
2019-04-07T09:21:52.554Z,11.90
2019-04-07T09:24:33.623Z,11.90
2019-04-07T09:27:09.008Z,12.00
2019-04-07T09:29:58.252Z,12.00
2019-04-07T09:32:30.913Z,12.10
2019-04-07T09:35:22.861Z,12.10
2019-04-07T09:37:58.760Z,12.10
2019-04-07T09:40:48.432Z,12.10
2019-04-07T09:43:30.283Z,12.20
2019-04-07T09:46:18.032Z,12.30
2019-04-07T09:48:59.919Z,12.40
2019-04-07T09:51:41.020Z,12.40
2019-04-07T09:54:12.249Z,12.50
2019-04-07T09:56:47.461Z,12.50
2019-04-07T09:59:20.264Z,12.50
2019-04-07T10:02:09.227Z,12.60
2019-04-07T10:04:44.116Z,12.60
2019-04-07T10:07:33.314Z,12.70
2019-04-07T10:10:12.847Z,12.70
2019-04-07T10:12:51.135Z,12.70
2019-04-07T10:15:23.160Z,12.70
2019-04-07T10:17:55.459Z,12.80
2019-04-07T10:20:27.551Z,12.80
2019-04-07T10:23:02.955Z,12.80
2019-04-07T10:25:50.755Z,12.80
2019-04-07T10:28:23.394Z,12.90
2019-04-07T10:31:11.571Z,13.00
2019-04-07T10:33:49.496Z,13.00
2019-04-07T10:36:21.646Z,13.10
2019-04-07T10:38:59.755Z,13.10
2019-04-07T10:41:48.303Z,13.20
2019-04-07T10:44:20.120Z,13.20
2019-04-07T10:46:51.993Z,13.30
2019-04-07T10:49:43.155Z,13.30
2019-04-07T10:52:18.068Z,13.40
2019-04-07T10:55:06.455Z,13.40
2019-04-07T10:57:45.246Z,13.40
2019-04-07T11:00:26.869Z,13.50
2019-04-07T11:03:01.980Z,13.60
2019-04-07T11:05:33.977Z,13.70
2019-04-07T11:08:06.120Z,13.80
2019-04-07T11:10:47.311Z,13.80
2019-04-07T11:13:19.199Z,13.90
2019-04-07T11:16:00.423Z,14.00
2019-04-07T11:18:32.624Z,14.00
2019-04-07T11:21:04.720Z,14.10
2019-04-07T11:23:39.281Z,14.20
2019-04-07T11:26:14.084Z,14.30
2019-04-07T11:28:49.109Z,14.50
2019-04-07T11:31:21.294Z,14.60
2019-04-07T11:33:53.268Z,14.80
2019-04-07T11:36:31.044Z,15.00
2019-04-07T11:39:11.982Z,15.10
2019-04-07T11:41:55.818Z,15.10
2019-04-07T11:44:46.796Z,15.20
2019-04-07T11:47:19.625Z,15.30
2019-04-07T11:49:51.690Z,15.30
2019-04-07T11:52:23.647Z,15.40
2019-04-07T11:54:55.592Z,15.40
2019-04-07T11:57:43.277Z,15.40
2019-04-07T12:00:29.897Z,15.50
2019-04-07T12:03:05.114Z,15.60
2019-04-07T12:05:50.589Z,15.70
2019-04-07T12:08:38.686Z,15.70
2019-04-07T12:11:28.796Z,15.80
2019-04-07T12:14:10.604Z,15.90
2019-04-07T12:17:02.365Z,16.00
2019-04-07T12:19:35.356Z,16.00
2019-04-07T12:22:26.101Z,15.90
2019-04-07T12:25:06.910Z,15.90
2019-04-07T12:27:54.880Z,16.00
2019-04-07T12:30:35.944Z,16.00
2019-04-07T12:33:16.635Z,16.10
2019-04-07T12:35:51.686Z,16.30
2019-04-07T12:38:22.697Z,16.50
2019-04-07T12:41:12.020Z,16.60
2019-04-07T12:43:49.540Z,16.80
2019-04-07T12:46:21.118Z,17.00
2019-04-07T12:48:56.523Z,17.20
2019-04-07T12:51:31.807Z,17.30
2019-04-07T12:54:07.425Z,17.50
2019-04-07T12:56:37.972Z,17.60
2019-04-07T12:59:14.337Z,17.70
2019-04-07T13:01:54.611Z,17.80
2019-04-07T13:04:26.625Z,18.00
2019-04-07T13:07:04.555Z,18.10
2019-04-07T13:12:34.346Z,18.10
2019-04-07T13:15:25.875Z,17.80
2019-04-07T13:18:08.485Z,17.60
2019-04-07T13:20:40.775Z,17.50
2019-04-07T13:23:13.623Z,17.40
2019-04-07T13:25:53.207Z,17.30
2019-04-07T13:28:24.750Z,17.20
2019-04-07T13:30:59.213Z,17.00
2019-04-07T13:33:39.809Z,16.90
2019-04-07T13:36:14.973Z,17.00
2019-04-07T13:38:56.086Z,17.30
2019-04-07T13:41:38.599Z,17.50
2019-04-07T13:44:21.734Z,17.70
2019-04-07T13:46:54.307Z,17.70
2019-04-07T13:49:27.846Z,17.80
2019-04-07T13:52:02.418Z,17.80
2019-04-07T13:54:34.468Z,17.80
2019-04-07T13:57:06.735Z,17.70
2019-04-07T13:59:47.797Z,17.60
2019-04-07T14:02:31.831Z,17.50
2019-04-07T14:05:18.695Z,17.40
2019-04-07T14:08:00.025Z,17.20
2019-04-07T14:10:37.145Z,17.10
2019-04-07T14:13:14.790Z,17.10
2019-04-07T14:16:04.739Z,17.10
2019-04-07T14:18:39.887Z,17.20
2019-04-07T14:21:11.877Z,17.20
2019-04-07T14:24:00.522Z,17.20
2019-04-07T14:26:51.602Z,17.10
2019-04-07T14:29:40.591Z,17.00
2019-04-07T14:32:28.303Z,16.90
2019-04-07T14:35:03.019Z,16.80
2019-04-07T14:37:51.275Z,16.80
2019-04-07T14:40:25.818Z,16.80
2019-04-07T14:43:01.050Z,17.00
2019-04-07T14:45:42.822Z,17.10
2019-04-07T14:48:16.203Z,17.30
2019-04-07T14:50:48.454Z,17.40
2019-04-07T14:53:21.088Z,17.30
2019-04-07T14:56:05.827Z,17.30
2019-04-07T14:58:48.421Z,17.30
2019-04-07T15:01:34.831Z,17.40
2019-04-07T15:04:06.356Z,17.50
2019-04-07T15:06:36.771Z,17.60
2019-04-07T15:09:09.048Z,17.60
2019-04-07T15:11:41.186Z,17.70
2019-04-07T15:14:12.432Z,17.70
2019-04-07T15:16:43.842Z,17.80
2019-04-07T15:19:14.198Z,17.90
2019-04-07T15:21:45.218Z,18.10
2019-04-07T15:24:16.474Z,18.40
2019-04-07T15:26:49.506Z,18.70
2019-04-07T15:29:18.714Z,19.00
2019-04-07T15:31:50.631Z,19.30
2019-04-07T15:34:20.869Z,19.40
2019-04-07T15:36:51.126Z,19.50
2019-04-07T15:39:21.528Z,19.40
2019-04-07T15:41:52.249Z,19.40
2019-04-07T15:44:22.892Z,20.10
2019-04-07T15:46:53.443Z,20.30
2019-04-07T15:49:27.349Z,20.00
2019-04-07T15:51:55.874Z,19.50
2019-04-07T15:54:26.168Z,19.00
2019-04-07T15:56:58.588Z,18.60
2019-04-07T15:59:29.827Z,18.20
2019-04-07T16:02:01.219Z,18.20
2019-04-07T16:04:31.960Z,18.20
2019-04-07T16:07:02.371Z,18.40
2019-04-07T16:09:47.415Z,18.70
2019-04-07T16:12:06.609Z,19.20
2019-04-07T16:14:37.458Z,20.80
2019-04-07T16:17:10.516Z,22.30
2019-04-07T16:19:43.769Z,22.50
2019-04-07T16:22:14.155Z,22.20
2019-04-07T16:24:44.142Z,22.60
2019-04-07T16:27:15.123Z,23.50
2019-04-07T16:29:46.863Z,23.50
2019-04-07T16:32:17.344Z,23.50
2019-04-07T16:34:47.656Z,22.70
2019-04-07T16:37:18.037Z,21.70
2019-04-07T16:39:48.340Z,20.70
2019-04-07T16:42:21.894Z,19.90
2019-04-07T16:44:52.641Z,19.30
2019-04-07T16:47:25.734Z,18.80
2019-04-07T16:49:55.878Z,18.30
2019-04-07T16:52:28.554Z,17.90
2019-04-07T16:55:02.233Z,17.60
2019-04-07T16:57:33.656Z,17.40
2019-04-07T17:00:13.377Z,17.20
2019-04-07T17:02:44.959Z,17.00
2019-04-07T17:05:15.888Z,16.80
2019-04-07T17:07:47.270Z,16.60
2019-04-07T17:10:18.730Z,16.50
2019-04-07T17:12:49.358Z,16.30
2019-04-07T17:15:19.617Z,16.20
2019-04-07T17:17:52.402Z,16.10
2019-04-07T17:20:22.414Z,15.90
2019-04-07T17:22:54.171Z,15.80
2019-04-07T17:25:25.409Z,15.60
2019-04-07T17:27:59.255Z,15.50
2019-04-07T17:30:28.948Z,15.30
2019-04-07T17:32:59.739Z,15.20
2019-04-07T17:35:30.739Z,15.10
2019-04-07T17:38:05.376Z,15.00
2019-04-07T17:40:36.436Z,14.90
2019-04-07T17:43:37.558Z,14.80
2019-04-07T17:46:02.376Z,14.70
2019-04-07T17:48:41.006Z,14.60
2019-04-07T17:51:10.307Z,14.50
2019-04-07T17:53:58.143Z,14.40
2019-04-07T17:56:30.955Z,14.30
2019-04-07T17:59:15.499Z,14.20
2019-04-07T18:02:02.360Z,14.10
2019-04-07T18:04:51.224Z,14.10
2019-04-07T18:07:20.189Z,14.00
2019-04-07T18:09:57.102Z,14.00
2019-04-07T18:12:30.651Z,13.90
2019-04-07T18:15:08.868Z,13.70
2019-04-07T18:17:51.113Z,13.70
2019-04-07T18:20:41.153Z,13.60
2019-04-07T18:23:13.300Z,13.50
2019-04-07T18:25:57.932Z,13.40
2019-04-07T18:28:54.047Z,13.40
2019-04-07T18:31:44.213Z,13.30
2019-04-07T18:34:27.431Z,13.20
2019-04-07T18:37:15.846Z,13.10
2019-04-07T18:39:52.320Z,13.10
2019-04-07T18:42:21.997Z,13.00
2019-04-07T18:45:12.659Z,13.00
2019-04-07T18:47:58.184Z,12.90
2019-04-07T18:50:36.984Z,12.90
2019-04-07T18:53:28.731Z,12.80
2019-04-07T18:56:01.452Z,12.80
2019-04-07T18:58:48.890Z,12.70
2019-04-07T19:01:39.073Z,12.80
2019-04-07T19:04:17.246Z,12.80
2019-04-07T19:06:57.958Z,12.80
2019-04-07T19:09:39.838Z,12.80
2019-04-07T19:12:20.473Z,12.80
2019-04-07T19:15:01.172Z,12.80
2019-04-07T19:17:31.685Z,12.80
2019-04-07T19:20:08.958Z,12.80
2019-04-07T19:22:49.106Z,12.70
2019-04-07T19:25:39.905Z,12.70
2019-04-07T19:28:12.130Z,12.60
2019-04-07T19:30:46.864Z,12.60
2019-04-07T19:33:34.109Z,12.50
2019-04-07T19:36:06.223Z,12.50
2019-04-07T19:38:49.661Z,12.40
2019-04-07T19:41:29.415Z,12.40
2019-04-07T19:44:20.089Z,12.30
2019-04-07T19:47:08.306Z,12.30
2019-04-07T19:49:41.105Z,12.20
2019-04-07T19:52:22.857Z,12.20
2019-04-07T19:55:10.826Z,12.20
2019-04-07T19:57:52.976Z,12.20
2019-04-07T20:00:40.052Z,12.10
2019-04-07T20:03:20.074Z,12.10
2019-04-07T20:05:53.309Z,12.10
2019-04-07T20:08:32.285Z,12.00
2019-04-07T20:11:14.114Z,12.00
2019-04-07T20:13:48.885Z,12.00
2019-04-07T20:16:20.757Z,11.90
2019-04-07T20:19:02.348Z,11.90
2019-04-07T20:21:42.339Z,11.80
2019-04-07T20:24:13.309Z,11.80
2019-04-07T20:26:59.906Z,11.80
2019-04-07T20:29:50.176Z,11.70
2019-04-07T20:32:26.135Z,11.70
2019-04-07T20:35:15.696Z,11.70
2019-04-07T20:37:48.753Z,11.70
2019-04-07T20:40:36.226Z,11.80
2019-04-07T20:43:21.789Z,11.80
2019-04-07T20:46:02.407Z,11.90
2019-04-07T20:48:50.271Z,12.00
2019-04-07T20:51:38.613Z,12.00
2019-04-07T20:54:10.498Z,12.00
2019-04-07T20:56:51.889Z,12.10
2019-04-07T20:59:34.473Z,12.10
2019-04-07T21:02:11.188Z,12.10
2019-04-07T21:04:52.060Z,12.10
2019-04-07T21:07:35.426Z,12.10
2019-04-07T21:10:10.324Z,12.10
2019-04-07T21:12:48.330Z,12.10
2019-04-07T21:15:25.957Z,12.10
2019-04-07T21:17:52.935Z,12.10
2019-04-07T21:20:34.205Z,12.10
2019-04-07T21:23:07.059Z,12.10
2019-04-07T21:25:41.487Z,12.10
2019-04-07T21:28:16.248Z,12.10
2019-04-07T21:30:51.544Z,12.10
2019-04-07T21:33:25.560Z,12.10
2019-04-07T21:36:15.232Z,12.10
2019-04-07T21:38:48.356Z,12.00
2019-04-07T21:41:24.336Z,12.10
2019-04-07T21:43:57.314Z,12.10
2019-04-07T21:46:30.452Z,12.10
2019-04-07T21:49:14.523Z,12.10
2019-04-07T21:51:47.447Z,12.10
2019-04-07T21:54:20.115Z,12.10
2019-04-07T21:57:07.872Z,12.20
2019-04-07T21:59:40.127Z,12.20
2019-04-07T22:02:27.783Z,12.10
2019-04-07T22:05:15.599Z,12.10
2019-04-07T22:07:48.022Z,12.20
2019-04-07T22:10:20.485Z,12.20
2019-04-07T22:12:50.625Z,12.10
2019-04-07T22:15:20.806Z,12.10
2019-04-07T22:17:52.011Z,12.20
2019-04-07T22:20:22.982Z,12.20
2019-04-07T22:22:56.457Z,12.20
2019-04-07T22:25:31.007Z,12.20
2019-04-07T22:28:01.487Z,12.20
2019-04-07T22:30:36.063Z,12.20
2019-04-07T22:33:04.186Z,12.20
2019-04-07T22:35:38.308Z,12.20
2019-04-07T22:38:07.276Z,12.20
2019-04-07T22:40:39.137Z,12.10
2019-04-07T22:43:11.324Z,12.10
2019-04-07T22:45:52.708Z,12.10
2019-04-07T22:48:14.176Z,12.10
2019-04-07T22:50:45.346Z,12.10
2019-04-07T22:53:21.181Z,12.10
2019-04-07T22:55:48.535Z,12.10
2019-04-07T22:58:18.941Z,12.10
2019-04-07T23:00:50.497Z,12.10
2019-04-07T23:03:20.929Z,12.10
2019-04-07T23:05:51.353Z,12.10
2019-04-07T23:08:21.665Z,12.00
2019-04-07T23:10:51.907Z,12.00
2019-04-07T23:13:22.192Z,12.10
2019-04-07T23:15:53.269Z,12.10
2019-04-07T23:18:24.372Z,12.00
2019-04-07T23:20:54.564Z,12.00
2019-04-07T23:23:24.809Z,12.00
2019-04-07T23:25:55.635Z,12.00
2019-04-07T23:28:26.013Z,12.00
2019-04-07T23:30:56.952Z,12.00
2019-04-07T23:33:27.646Z,12.00
2019-04-07T23:35:57.942Z,11.90
2019-04-07T23:38:28.931Z,12.00
2019-04-07T23:40:59.224Z,11.90
2019-04-07T23:43:29.432Z,11.90
2019-04-07T23:46:00.158Z,11.90
2019-04-07T23:48:30.646Z,11.90
2019-04-07T23:51:01.687Z,11.90
2019-04-07T23:54:10.931Z,11.90
2019-04-07T23:56:43.645Z,11.90
2019-04-07T23:59:14.930Z,11.90
